sensor_id;sensor_type;location;lat;lon;timestamp;pressure;altitude;pressure_sealevel;temperature;humidity
46722;BME280;32455;43.430;23.136;2023-12-20T00:01:37;98310.97;;;4.52;89.58
46722;BME280;32455;43.430;23.136;2023-12-20T00:04:22;98305.88;;;4.81;88.10
46722;BME280;32455;43.430;23.136;2023-12-20T00:07:07;98309.38;;;5.11;85.86
46722;BME280;32455;43.430;23.136;2023-12-20T00:09:52;98310.91;;;5.35;83.39
46722;BME280;32455;43.430;23.136;2023-12-20T00:12:37;98310.22;;;5.47;82.66
46722;BME280;32455;43.430;23.136;2023-12-20T00:15:22;98308.22;;;5.35;83.02
46722;BME280;32455;43.430;23.136;2023-12-20T00:18:07;98309.19;;;5.27;83.97
46722;BME280;32455;43.430;23.136;2023-12-20T00:20:53;98305.97;;;4.72;87.67
46722;BME280;32455;43.430;23.136;2023-12-20T00:23:38;98294.38;;;4.50;89.79
46722;BME280;32455;43.430;23.136;2023-12-20T00:26:23;98298.19;;;4.33;91.70
46722;BME280;32455;43.430;23.136;2023-12-20T00:29:09;98289.00;;;4.36;91.40
46722;BME280;32455;43.430;23.136;2023-12-20T00:31:54;98285.50;;;4.20;92.99
46722;BME280;32455;43.430;23.136;2023-12-20T00:34:40;98283.66;;;4.21;93.25
46722;BME280;32455;43.430;23.136;2023-12-20T00:37:25;98279.50;;;4.18;93.23
46722;BME280;32455;43.430;23.136;2023-12-20T00:40:11;98273.97;;;4.05;94.61
46722;BME280;32455;43.430;23.136;2023-12-20T00:42:56;98272.56;;;3.94;95.24
46722;BME280;32455;43.430;23.136;2023-12-20T00:45:41;98268.72;;;3.74;96.15
46722;BME280;32455;43.430;23.136;2023-12-20T00:48:27;98261.72;;;3.50;97.38
46722;BME280;32455;43.430;23.136;2023-12-20T00:51:12;98254.13;;;3.47;97.50
46722;BME280;32455;43.430;23.136;2023-12-20T00:53:57;98252.75;;;3.51;97.24
46722;BME280;32455;43.430;23.136;2023-12-20T00:56:43;98250.72;;;3.61;97.41
46722;BME280;32455;43.430;23.136;2023-12-20T00:59:28;98254.25;;;3.54;98.69
46722;BME280;32455;43.430;23.136;2023-12-20T01:02:13;98248.88;;;3.39;99.85
46722;BME280;32455;43.430;23.136;2023-12-20T01:04:59;98249.50;;;3.41;99.79
46722;BME280;32455;43.430;23.136;2023-12-20T01:07:44;98245.25;;;3.55;98.99
46722;BME280;32455;43.430;23.136;2023-12-20T01:10:30;98236.72;;;3.67;97.72
46722;BME280;32455;43.430;23.136;2023-12-20T01:13:16;98234.13;;;3.82;95.87
46722;BME280;32455;43.430;23.136;2023-12-20T01:16:01;98225.78;;;3.85;95.94
46722;BME280;32455;43.430;23.136;2023-12-20T01:18:46;98224.72;;;3.71;96.75
46722;BME280;32455;43.430;23.136;2023-12-20T01:21:32;98222.94;;;3.64;96.58
46722;BME280;32455;43.430;23.136;2023-12-20T01:24:17;98228.25;;;3.64;94.41
46722;BME280;32455;43.430;23.136;2023-12-20T01:27:02;98230.56;;;3.44;95.69
46722;BME280;32455;43.430;23.136;2023-12-20T01:29:47;98223.69;;;3.26;97.07
46722;BME280;32455;43.430;23.136;2023-12-20T01:32:32;98226.84;;;2.91;100.00
46722;BME280;32455;43.430;23.136;2023-12-20T01:35:18;98212.69;;;2.67;100.00
46722;BME280;32455;43.430;23.136;2023-12-20T01:38:03;98218.19;;;2.66;100.00
46722;BME280;32455;43.430;23.136;2023-12-20T01:40:49;98202.06;;;2.75;100.00
46722;BME280;32455;43.430;23.136;2023-12-20T01:43:34;98200.94;;;2.70;100.00
46722;BME280;32455;43.430;23.136;2023-12-20T01:46:19;98200.28;;;2.60;100.00
46722;BME280;32455;43.430;23.136;2023-12-20T01:49:05;98193.19;;;2.44;100.00
46722;BME280;32455;43.430;23.136;2023-12-20T01:51:50;98194.47;;;2.64;100.00
46722;BME280;32455;43.430;23.136;2023-12-20T01:54:36;98181.44;;;2.38;100.00
46722;BME280;32455;43.430;23.136;2023-12-20T01:57:21;98187.97;;;2.28;100.00
46722;BME280;32455;43.430;23.136;2023-12-20T02:00:07;98181.16;;;2.33;100.00
46722;BME280;32455;43.430;23.136;2023-12-20T02:02:54;98166.75;;;2.28;100.00
46722;BME280;32455;43.430;23.136;2023-12-20T02:05:42;98168.88;;;2.32;100.00
46722;BME280;32455;43.430;23.136;2023-12-20T02:08:29;98160.78;;;2.17;100.00
46722;BME280;32455;43.430;23.136;2023-12-20T02:11:15;98156.81;;;2.21;100.00
46722;BME280;32455;43.430;23.136;2023-12-20T02:14:00;98158.31;;;2.24;100.00
46722;BME280;32455;43.430;23.136;2023-12-20T02:16:45;98154.50;;;2.18;100.00
46722;BME280;32455;43.430;23.136;2023-12-20T02:19:31;98156.81;;;2.13;100.00
46722;BME280;32455;43.430;23.136;2023-12-20T02:22:16;98147.38;;;2.27;100.00
46722;BME280;32455;43.430;23.136;2023-12-20T02:25:02;98142.06;;;2.27;100.00
46722;BME280;32455;43.430;23.136;2023-12-20T02:27:48;98144.59;;;2.04;100.00
46722;BME280;32455;43.430;23.136;2023-12-20T02:30:34;98140.09;;;2.13;100.00
46722;BME280;32455;43.430;23.136;2023-12-20T02:33:19;98135.13;;;2.10;100.00
46722;BME280;32455;43.430;23.136;2023-12-20T02:36:06;98138.75;;;2.17;100.00
46722;BME280;32455;43.430;23.136;2023-12-20T02:38:52;98133.38;;;1.94;100.00
46722;BME280;32455;43.430;23.136;2023-12-20T02:41:37;98131.06;;;1.58;100.00
46722;BME280;32455;43.430;23.136;2023-12-20T02:44:22;98123.00;;;1.43;100.00
46722;BME280;32455;43.430;23.136;2023-12-20T02:47:07;98120.50;;;1.34;100.00
46722;BME280;32455;43.430;23.136;2023-12-20T02:49:52;98112.56;;;1.42;100.00
46722;BME280;32455;43.430;23.136;2023-12-20T02:52:37;98108.44;;;1.31;100.00
46722;BME280;32455;43.430;23.136;2023-12-20T02:55:23;98107.28;;;1.34;100.00
46722;BME280;32455;43.430;23.136;2023-12-20T02:58:08;98095.84;;;1.09;100.00
46722;BME280;32455;43.430;23.136;2023-12-20T03:00:53;98095.69;;;1.10;100.00
46722;BME280;32455;43.430;23.136;2023-12-20T03:03:39;98091.06;;;1.12;100.00
46722;BME280;32455;43.430;23.136;2023-12-20T03:06:24;98094.38;;;1.22;100.00
46722;BME280;32455;43.430;23.136;2023-12-20T03:09:09;98092.53;;;1.07;100.00
46722;BME280;32455;43.430;23.136;2023-12-20T03:11:55;98097.34;;;1.28;100.00
46722;BME280;32455;43.430;23.136;2023-12-20T03:14:40;98091.72;;;1.39;100.00
46722;BME280;32455;43.430;23.136;2023-12-20T03:17:26;98089.41;;;1.36;100.00
46722;BME280;32455;43.430;23.136;2023-12-20T03:20:11;98089.88;;;1.15;100.00
46722;BME280;32455;43.430;23.136;2023-12-20T03:22:57;98084.44;;;1.16;100.00
46722;BME280;32455;43.430;23.136;2023-12-20T03:25:43;98079.97;;;0.92;100.00
46722;BME280;32455;43.430;23.136;2023-12-20T03:28:29;98081.56;;;0.77;100.00
46722;BME280;32455;43.430;23.136;2023-12-20T03:31:14;98087.25;;;0.90;100.00
46722;BME280;32455;43.430;23.136;2023-12-20T03:33:59;98079.78;;;0.94;100.00
46722;BME280;32455;43.430;23.136;2023-12-20T03:36:44;98068.22;;;0.87;100.00
46722;BME280;32455;43.430;23.136;2023-12-20T03:39:29;98074.00;;;0.98;100.00
46722;BME280;32455;43.430;23.136;2023-12-20T03:42:14;98075.81;;;0.82;100.00
46722;BME280;32455;43.430;23.136;2023-12-20T03:45:00;98067.53;;;0.60;100.00
46722;BME280;32455;43.430;23.136;2023-12-20T03:47:45;98072.97;;;0.67;100.00
46722;BME280;32455;43.430;23.136;2023-12-20T03:50:31;98063.19;;;0.59;100.00
46722;BME280;32455;43.430;23.136;2023-12-20T03:53:16;98069.50;;;0.58;100.00
46722;BME280;32455;43.430;23.136;2023-12-20T03:56:01;98069.09;;;0.37;100.00
46722;BME280;32455;43.430;23.136;2023-12-20T03:58:46;98069.38;;;0.25;100.00
46722;BME280;32455;43.430;23.136;2023-12-20T04:01:31;98065.13;;;0.33;100.00
46722;BME280;32455;43.430;23.136;2023-12-20T04:04:17;98070.25;;;0.26;100.00
46722;BME280;32455;43.430;23.136;2023-12-20T04:07:02;98059.56;;;0.44;100.00
46722;BME280;32455;43.430;23.136;2023-12-20T04:09:47;98049.97;;;0.43;100.00
46722;BME280;32455;43.430;23.136;2023-12-20T04:12:33;98059.00;;;0.32;100.00
46722;BME280;32455;43.430;23.136;2023-12-20T04:15:18;98051.88;;;0.24;100.00
46722;BME280;32455;43.430;23.136;2023-12-20T04:18:04;98047.31;;;0.35;100.00
46722;BME280;32455;43.430;23.136;2023-12-20T04:20:49;98053.44;;;0.43;100.00
46722;BME280;32455;43.430;23.136;2023-12-20T04:23:35;98044.81;;;0.41;100.00
46722;BME280;32455;43.430;23.136;2023-12-20T04:26:20;98044.50;;;0.44;100.00
46722;BME280;32455;43.430;23.136;2023-12-20T04:29:06;98043.50;;;0.37;100.00
46722;BME280;32455;43.430;23.136;2023-12-20T04:31:51;98037.88;;;0.32;100.00
46722;BME280;32455;43.430;23.136;2023-12-20T04:34:36;98028.59;;;0.20;100.00
46722;BME280;32455;43.430;23.136;2023-12-20T04:37:22;98030.31;;;-0.05;100.00
46722;BME280;32455;43.430;23.136;2023-12-20T04:40:07;98026.03;;;0.02;100.00
46722;BME280;32455;43.430;23.136;2023-12-20T04:42:53;98021.09;;;0.07;100.00
46722;BME280;32455;43.430;23.136;2023-12-20T04:45:38;98030.53;;;0.10;100.00
46722;BME280;32455;43.430;23.136;2023-12-20T04:48:24;98017.47;;;0.08;100.00
46722;BME280;32455;43.430;23.136;2023-12-20T04:51:10;98024.50;;;-0.17;100.00
46722;BME280;32455;43.430;23.136;2023-12-20T04:53:55;98016.75;;;-0.10;100.00
46722;BME280;32455;43.430;23.136;2023-12-20T04:56:41;98018.94;;;0.03;100.00
46722;BME280;32455;43.430;23.136;2023-12-20T04:59:26;98018.78;;;0.04;100.00
46722;BME280;32455;43.430;23.136;2023-12-20T05:02:11;98015.13;;;-0.03;100.00
46722;BME280;32455;43.430;23.136;2023-12-20T05:04:57;98019.66;;;-0.21;100.00
46722;BME280;32455;43.430;23.136;2023-12-20T05:07:42;98012.63;;;-0.13;100.00
46722;BME280;32455;43.430;23.136;2023-12-20T05:10:27;98017.50;;;0.16;100.00
46722;BME280;32455;43.430;23.136;2023-12-20T05:13:12;98012.84;;;0.02;100.00
46722;BME280;32455;43.430;23.136;2023-12-20T05:15:57;98021.66;;;-0.23;100.00
46722;BME280;32455;43.430;23.136;2023-12-20T05:18:42;98019.19;;;-0.25;100.00
46722;BME280;32455;43.430;23.136;2023-12-20T05:21:27;98016.84;;;-0.28;100.00
46722;BME280;32455;43.430;23.136;2023-12-20T05:24:12;98014.84;;;-0.26;100.00
46722;BME280;32455;43.430;23.136;2023-12-20T05:26:57;98010.13;;;-0.14;100.00
46722;BME280;32455;43.430;23.136;2023-12-20T05:29:43;98005.53;;;-0.12;100.00
46722;BME280;32455;43.430;23.136;2023-12-20T05:32:28;98000.91;;;-0.10;100.00
46722;BME280;32455;43.430;23.136;2023-12-20T05:35:13;97997.22;;;-0.26;100.00
46722;BME280;32455;43.430;23.136;2023-12-20T05:37:58;97993.97;;;-0.11;100.00
46722;BME280;32455;43.430;23.136;2023-12-20T05:40:43;97994.59;;;-0.17;100.00
46722;BME280;32455;43.430;23.136;2023-12-20T05:43:29;97984.16;;;-0.27;100.00
46722;BME280;32455;43.430;23.136;2023-12-20T05:46:14;97985.47;;;-0.31;100.00
46722;BME280;32455;43.430;23.136;2023-12-20T05:48:59;97988.88;;;-0.13;100.00
46722;BME280;32455;43.430;23.136;2023-12-20T05:51:44;97988.03;;;-0.05;100.00
46722;BME280;32455;43.430;23.136;2023-12-20T05:54:30;97995.50;;;-0.01;100.00
46722;BME280;32455;43.430;23.136;2023-12-20T05:57:15;97982.38;;;-0.18;100.00
46722;BME280;32455;43.430;23.136;2023-12-20T06:00:00;97989.97;;;-0.23;100.00
46722;BME280;32455;43.430;23.136;2023-12-20T06:02:45;97981.91;;;-0.14;100.00
46722;BME280;32455;43.430;23.136;2023-12-20T06:05:31;97980.72;;;-0.28;100.00
46722;BME280;32455;43.430;23.136;2023-12-20T06:08:16;97975.94;;;-0.24;100.00
46722;BME280;32455;43.430;23.136;2023-12-20T06:11:02;97967.47;;;-0.36;100.00
46722;BME280;32455;43.430;23.136;2023-12-20T06:13:47;97965.84;;;-0.29;100.00
46722;BME280;32455;43.430;23.136;2023-12-20T06:16:34;97965.25;;;-0.14;100.00
46722;BME280;32455;43.430;23.136;2023-12-20T06:19:19;97957.50;;;-0.16;100.00
46722;BME280;32455;43.430;23.136;2023-12-20T06:22:04;97955.16;;;-0.19;100.00
46722;BME280;32455;43.430;23.136;2023-12-20T06:24:50;97945.41;;;-0.18;100.00
46722;BME280;32455;43.430;23.136;2023-12-20T06:27:35;97946.47;;;-0.03;100.00
46722;BME280;32455;43.430;23.136;2023-12-20T06:30:21;97944.47;;;-0.09;100.00
46722;BME280;32455;43.430;23.136;2023-12-20T06:33:06;97954.19;;;-0.10;100.00
46722;BME280;32455;43.430;23.136;2023-12-20T06:35:51;97950.56;;;-0.17;100.00
46722;BME280;32455;43.430;23.136;2023-12-20T06:38:37;97946.94;;;-0.08;100.00
46722;BME280;32455;43.430;23.136;2023-12-20T06:41:22;97944.47;;;-0.09;100.00
46722;BME280;32455;43.430;23.136;2023-12-20T06:44:09;97940.22;;;0.06;100.00
46722;BME280;32455;43.430;23.136;2023-12-20T06:46:53;97946.00;;;0.10;100.00
46722;BME280;32455;43.430;23.136;2023-12-20T06:49:38;97950.28;;;0.03;100.00
46722;BME280;32455;43.430;23.136;2023-12-20T06:52:24;97943.53;;;0.24;100.00
46722;BME280;32455;43.430;23.136;2023-12-20T06:55:09;97940.06;;;0.16;100.00
46722;BME280;32455;43.430;23.136;2023-12-20T06:57:54;97940.75;;;0.18;100.00
46722;BME280;32455;43.430;23.136;2023-12-20T07:00:39;97932.31;;;0.14;100.00
46722;BME280;32455;43.430;23.136;2023-12-20T07:03:24;97936.91;;;0.12;100.00
46722;BME280;32455;43.430;23.136;2023-12-20T07:06:10;97932.16;;;0.32;100.00
46722;BME280;32455;43.430;23.136;2023-12-20T07:08:55;97933.66;;;0.59;100.00
46722;BME280;32455;43.430;23.136;2023-12-20T07:11:40;97919.78;;;0.41;100.00
46722;BME280;32455;43.430;23.136;2023-12-20T07:14:25;97933.16;;;0.39;100.00
46722;BME280;32455;43.430;23.136;2023-12-20T07:17:11;97927.88;;;0.39;100.00
46722;BME280;32455;43.430;23.136;2023-12-20T07:19:58;97917.47;;;0.46;100.00
46722;BME280;32455;43.430;23.136;2023-12-20T07:22:43;97929.88;;;0.54;100.00
46722;BME280;32455;43.430;23.136;2023-12-20T07:25:28;97918.28;;;0.46;100.00
46722;BME280;32455;43.430;23.136;2023-12-20T07:28:17;97925.06;;;0.57;100.00
46722;BME280;32455;43.430;23.136;2023-12-20T07:31:02;97920.28;;;0.53;100.00
46722;BME280;32455;43.430;23.136;2023-12-20T07:33:47;97909.19;;;0.82;100.00
46722;BME280;32455;43.430;23.136;2023-12-20T07:36:33;97908.50;;;0.96;100.00
46722;BME280;32455;43.430;23.136;2023-12-20T07:39:18;97905.78;;;1.29;100.00
46722;BME280;32455;43.430;23.136;2023-12-20T07:42:03;97911.53;;;1.40;100.00
46722;BME280;32455;43.430;23.136;2023-12-20T07:44:49;97907.31;;;1.54;100.00
46722;BME280;32455;43.430;23.136;2023-12-20T07:47:34;97907.28;;;1.62;100.00
46722;BME280;32455;43.430;23.136;2023-12-20T07:50:19;97902.66;;;1.95;100.00
46722;BME280;32455;43.430;23.136;2023-12-20T07:53:05;97893.56;;;1.98;100.00
46722;BME280;32455;43.430;23.136;2023-12-20T07:55:50;97900.00;;;2.49;100.00
46722;BME280;32455;43.430;23.136;2023-12-20T07:58:37;97900.88;;;2.80;100.00
46722;BME280;32455;43.430;23.136;2023-12-20T08:01:22;97904.22;;;2.96;100.00
46722;BME280;32455;43.430;23.136;2023-12-20T08:04:08;97908.44;;;3.06;100.00
46722;BME280;32455;43.430;23.136;2023-12-20T08:06:53;97909.56;;;3.26;100.00
46722;BME280;32455;43.430;23.136;2023-12-20T08:09:38;97896.13;;;3.64;100.00
46722;BME280;32455;43.430;23.136;2023-12-20T08:12:24;97895.28;;;3.93;100.00
46722;BME280;32455;43.430;23.136;2023-12-20T08:15:12;97898.91;;;4.07;100.00
46722;BME280;32455;43.430;23.136;2023-12-20T08:17:59;97890.06;;;4.21;100.00
46722;BME280;32455;43.430;23.136;2023-12-20T08:20:44;97892.66;;;4.36;100.00
46722;BME280;32455;43.430;23.136;2023-12-20T08:23:29;97895.97;;;4.59;100.00
46722;BME280;32455;43.430;23.136;2023-12-20T08:26:18;97879.94;;;5.09;100.00
46722;BME280;32455;43.430;23.136;2023-12-20T08:29:04;97880.44;;;5.19;100.00
46722;BME280;32455;43.430;23.136;2023-12-20T08:31:53;97873.19;;;5.41;100.00
46722;BME280;32455;43.430;23.136;2023-12-20T08:34:41;97875.97;;;5.67;99.24
46722;BME280;32455;43.430;23.136;2023-12-20T08:37:26;97878.69;;;5.81;97.72
46722;BME280;32455;43.430;23.136;2023-12-20T08:40:11;97868.31;;;5.92;93.82
46722;BME280;32455;43.430;23.136;2023-12-20T08:42:56;97868.09;;;5.94;94.15
46722;BME280;32455;43.430;23.136;2023-12-20T08:45:42;97865.63;;;5.92;94.54
46722;BME280;32455;43.430;23.136;2023-12-20T08:48:28;97869.34;;;5.98;93.32
46722;BME280;32455;43.430;23.136;2023-12-20T08:51:14;97865.50;;;6.20;92.36
46722;BME280;32455;43.430;23.136;2023-12-20T08:53:59;97873.31;;;6.42;89.18
46722;BME280;32455;43.430;23.136;2023-12-20T08:56:44;97855.69;;;6.47;91.06
46722;BME280;32455;43.430;23.136;2023-12-20T08:59:29;97843.78;;;6.63;93.11
46722;BME280;32455;43.430;23.136;2023-12-20T09:02:15;97845.41;;;6.71;85.43
46722;BME280;32455;43.430;23.136;2023-12-20T09:05:01;97839.66;;;6.94;85.23
46722;BME280;32455;43.430;23.136;2023-12-20T09:07:46;97830.22;;;6.85;88.24
46722;BME280;32455;43.430;23.136;2023-12-20T09:10:31;97833.31;;;6.82;89.96
46722;BME280;32455;43.430;23.136;2023-12-20T09:13:16;97827.97;;;6.82;90.60
46722;BME280;32455;43.430;23.136;2023-12-20T09:16:02;97833.09;;;6.90;89.17
46722;BME280;32455;43.430;23.136;2023-12-20T09:18:48;97825.28;;;6.95;88.79
46722;BME280;32455;43.430;23.136;2023-12-20T09:21:33;97814.38;;;7.03;91.52
46722;BME280;32455;43.430;23.136;2023-12-20T09:24:19;97803.88;;;7.08;88.18
46722;BME280;32455;43.430;23.136;2023-12-20T09:27:05;97806.28;;;7.30;86.59
46722;BME280;32455;43.430;23.136;2023-12-20T09:29:50;97803.22;;;7.33;87.16
46722;BME280;32455;43.430;23.136;2023-12-20T09:32:36;97796.59;;;7.35;87.26
46722;BME280;32455;43.430;23.136;2023-12-20T09:35:22;97790.84;;;7.38;87.25
46722;BME280;32455;43.430;23.136;2023-12-20T09:38:07;97790.59;;;7.46;86.95
46722;BME280;32455;43.430;23.136;2023-12-20T09:40:53;97782.75;;;7.51;87.14
46722;BME280;32455;43.430;23.136;2023-12-20T09:43:40;97779.22;;;7.64;87.40
46722;BME280;32455;43.430;23.136;2023-12-20T09:46:26;97766.19;;;7.74;86.67
46722;BME280;32455;43.430;23.136;2023-12-20T09:49:16;97772.00;;;8.03;86.65
46722;BME280;32455;43.430;23.136;2023-12-20T09:52:03;97752.31;;;8.22;87.49
46722;BME280;32455;43.430;23.136;2023-12-20T09:54:52;97748.28;;;8.38;84.86
46722;BME280;32455;43.430;23.136;2023-12-20T09:57:39;97740.47;;;8.62;84.84
46722;BME280;32455;43.430;23.136;2023-12-20T10:00:25;97744.91;;;8.68;77.56
46722;BME280;32455;43.430;23.136;2023-12-20T10:03:11;97747.69;;;8.80;70.62
46722;BME280;32455;43.430;23.136;2023-12-20T10:06:00;97733.13;;;8.94;71.70
46722;BME280;32455;43.430;23.136;2023-12-20T10:08:45;97734.16;;;9.11;71.42
46722;BME280;32455;43.430;23.136;2023-12-20T10:11:31;97721.06;;;9.21;70.23
46722;BME280;32455;43.430;23.136;2023-12-20T10:14:17;97717.53;;;9.39;71.62
46722;BME280;32455;43.430;23.136;2023-12-20T10:17:04;97704.44;;;9.61;70.51
46722;BME280;32455;43.430;23.136;2023-12-20T10:19:50;97706.25;;;9.79;66.70
46722;BME280;32455;43.430;23.136;2023-12-20T10:22:35;97699.28;;;9.90;68.01
46722;BME280;32455;43.430;23.136;2023-12-20T10:25:23;97693.94;;;9.90;67.07
46722;BME280;32455;43.430;23.136;2023-12-20T10:28:12;97690.22;;;10.02;68.20
46722;BME280;32455;43.430;23.136;2023-12-20T10:30:57;97679.59;;;10.08;68.76
46722;BME280;32455;43.430;23.136;2023-12-20T10:33:44;97675.63;;;10.10;66.71
46722;BME280;32455;43.430;23.136;2023-12-20T10:36:32;97682.03;;;10.09;65.87
46722;BME280;32455;43.430;23.136;2023-12-20T10:39:18;97677.63;;;10.03;66.84
46722;BME280;32455;43.430;23.136;2023-12-20T10:42:05;97674.56;;;9.99;65.94
46722;BME280;32455;43.430;23.136;2023-12-20T10:44:51;97673.03;;;9.92;67.47
46722;BME280;32455;43.430;23.136;2023-12-20T10:47:39;97674.53;;;9.88;69.03
46722;BME280;32455;43.430;23.136;2023-12-20T10:50:26;97671.13;;;9.81;71.49
46722;BME280;32455;43.430;23.136;2023-12-20T10:53:13;97662.06;;;9.82;73.65
46722;BME280;32455;43.430;23.136;2023-12-20T10:56:00;97648.38;;;9.71;75.77
46722;BME280;32455;43.430;23.136;2023-12-20T10:58:48;97665.34;;;9.53;74.92
46722;BME280;32455;43.430;23.136;2023-12-20T11:01:34;97654.75;;;9.28;74.19
46722;BME280;32455;43.430;23.136;2023-12-20T11:04:24;97660.78;;;9.54;74.35
46722;BME280;32455;43.430;23.136;2023-12-20T11:07:33;97654.03;;;9.51;74.11
46722;BME280;32455;43.430;23.136;2023-12-20T11:14:15;97636.78;;;9.47;77.00
46722;BME280;32455;43.430;23.136;2023-12-20T11:17:08;97627.59;;;9.55;78.95
46722;BME280;32455;43.430;23.136;2023-12-20T11:22:53;97630.50;;;9.23;78.33
46722;BME280;32455;43.430;23.136;2023-12-20T11:25:49;97625.81;;;9.49;77.87
46722;BME280;32455;43.430;23.136;2023-12-20T11:28:36;97619.06;;;9.58;76.53
46722;BME280;32455;43.430;23.136;2023-12-20T11:31:21;97616.16;;;9.71;76.89
46722;BME280;32455;43.430;23.136;2023-12-20T11:34:13;97605.59;;;9.88;76.80
46722;BME280;32455;43.430;23.136;2023-12-20T11:37:00;97615.84;;;9.79;79.46
46722;BME280;32455;43.430;23.136;2023-12-20T11:39:56;97595.78;;;10.06;80.25
46722;BME280;32455;43.430;23.136;2023-12-20T11:42:45;97593.81;;;10.13;79.53
46722;BME280;32455;43.430;23.136;2023-12-20T11:45:33;97583.88;;;10.13;79.25
46722;BME280;32455;43.430;23.136;2023-12-20T11:48:22;97574.56;;;9.92;77.86
46722;BME280;32455;43.430;23.136;2023-12-20T11:51:11;97569.53;;;9.96;79.35
46722;BME280;32455;43.430;23.136;2023-12-20T11:53:57;97565.19;;;10.18;78.75
46722;BME280;32455;43.430;23.136;2023-12-20T11:56:42;97560.09;;;10.28;77.93
46722;BME280;32455;43.430;23.136;2023-12-20T11:59:28;97558.81;;;10.31;78.60
46722;BME280;32455;43.430;23.136;2023-12-20T12:02:13;97553.91;;;10.16;78.89
46722;BME280;32455;43.430;23.136;2023-12-20T12:05:02;97553.91;;;10.16;78.89
46722;BME280;32455;43.430;23.136;2023-12-20T12:07:50;97549.81;;;9.78;81.53
46722;BME280;32455;43.430;23.136;2023-12-20T12:10:35;97549.81;;;9.78;81.53
46722;BME280;32455;43.430;23.136;2023-12-20T12:13:21;97549.81;;;9.78;81.53
46722;BME280;32455;43.430;23.136;2023-12-20T12:16:07;97549.81;;;9.78;81.53
46722;BME280;32455;43.430;23.136;2023-12-20T12:18:58;97549.81;;;9.78;81.53
46722;BME280;32455;43.430;23.136;2023-12-20T12:21:43;97549.81;;;9.78;81.53
46722;BME280;32455;43.430;23.136;2023-12-20T12:24:28;97549.81;;;9.78;81.53
46722;BME280;32455;43.430;23.136;2023-12-20T12:27:13;97549.81;;;9.78;81.53
46722;BME280;32455;43.430;23.136;2023-12-20T12:30:04;97549.81;;;9.78;81.53
46722;BME280;32455;43.430;23.136;2023-12-20T12:32:52;97549.81;;;9.78;81.53
46722;BME280;32455;43.430;23.136;2023-12-20T12:35:38;97549.81;;;9.78;81.53
46722;BME280;32455;43.430;23.136;2023-12-20T12:38:26;97549.81;;;9.78;81.53
46722;BME280;32455;43.430;23.136;2023-12-20T12:41:13;97549.81;;;9.78;81.53
46722;BME280;32455;43.430;23.136;2023-12-20T12:44:00;97549.81;;;9.78;81.53
46722;BME280;32455;43.430;23.136;2023-12-20T12:46:46;97549.81;;;9.78;81.53
46722;BME280;32455;43.430;23.136;2023-12-20T12:49:32;97549.81;;;9.78;81.53
46722;BME280;32455;43.430;23.136;2023-12-20T12:52:17;97549.81;;;9.78;81.53
46722;BME280;32455;43.430;23.136;2023-12-20T12:55:03;97549.81;;;9.78;81.53
46722;BME280;32455;43.430;23.136;2023-12-20T12:57:49;97549.81;;;9.78;81.53
46722;BME280;32455;43.430;23.136;2023-12-20T13:00:35;97549.81;;;9.78;81.53
46722;BME280;32455;43.430;23.136;2023-12-20T13:03:21;97549.81;;;9.78;81.53
46722;BME280;32455;43.430;23.136;2023-12-20T13:06:07;97549.81;;;9.78;81.53
46722;BME280;32455;43.430;23.136;2023-12-20T13:08:54;97549.81;;;9.78;81.53
46722;BME280;32455;43.430;23.136;2023-12-20T13:11:40;97549.81;;;9.78;81.53
46722;BME280;32455;43.430;23.136;2023-12-20T13:14:25;62537.69;;;-145.99;81.53
46722;BME280;32455;43.430;23.136;2023-12-20T13:17:10;74852.88;;;-99.03;81.53
46722;BME280;32455;43.430;23.136;2023-12-20T13:19:56;97549.81;;;9.78;81.53
46722;BME280;32455;43.430;23.136;2023-12-20T13:22:41;97549.81;;;9.78;81.53
46722;BME280;32455;43.430;23.136;2023-12-20T13:25:26;97549.81;;;9.78;81.53
46722;BME280;32455;43.430;23.136;2023-12-20T13:28:11;97549.81;;;9.78;81.53
46722;BME280;32455;43.430;23.136;2023-12-20T13:30:57;62537.69;;;-145.99;100.00
46722;BME280;32455;43.430;23.136;2023-12-20T13:33:42;62537.69;;;-145.99;100.00
46722;BME280;32455;43.430;23.136;2023-12-20T13:36:27;62537.69;;;-145.99;100.00
46722;BME280;32455;43.430;23.136;2023-12-20T13:39:13;62537.69;;;-145.99;100.00
46722;BME280;32455;43.430;23.136;2023-12-20T13:41:59;62537.69;;;-145.99;100.00
46722;BME280;32455;43.430;23.136;2023-12-20T13:44:44;62537.69;;;-145.99;100.00
46722;BME280;32455;43.430;23.136;2023-12-20T13:47:30;62537.69;;;-145.99;100.00
46722;BME280;32455;43.430;23.136;2023-12-20T13:50:15;62537.69;;;-145.99;100.00
46722;BME280;32455;43.430;23.136;2023-12-20T13:53:01;62537.69;;;-145.99;100.00
46722;BME280;32455;43.430;23.136;2023-12-20T13:55:49;62537.69;;;-145.99;100.00
46722;BME280;32455;43.430;23.136;2023-12-20T13:58:34;62537.69;;;-145.99;100.00
46722;BME280;32455;43.430;23.136;2023-12-20T14:01:20;62537.69;;;-145.99;100.00
46722;BME280;32455;43.430;23.136;2023-12-20T14:04:05;62537.69;;;-145.99;100.00
46722;BME280;32455;43.430;23.136;2023-12-20T14:06:51;62537.69;;;-145.99;100.00
46722;BME280;32455;43.430;23.136;2023-12-20T14:09:37;62537.69;;;-145.99;100.00
46722;BME280;32455;43.430;23.136;2023-12-20T14:12:21;62537.69;;;-145.99;100.00
46722;BME280;32455;43.430;23.136;2023-12-20T14:15:07;62537.69;;;-145.99;100.00
46722;BME280;32455;43.430;23.136;2023-12-20T14:17:58;62537.69;;;-145.99;100.00
46722;BME280;32455;43.430;23.136;2023-12-20T14:20:44;62537.69;;;-145.99;100.00
46722;BME280;32455;43.430;23.136;2023-12-20T14:23:32;62537.69;;;-145.99;100.00
46722;BME280;32455;43.430;23.136;2023-12-20T14:26:18;62537.69;;;-145.99;100.00
46722;BME280;32455;43.430;23.136;2023-12-20T14:29:03;62537.69;;;-145.99;100.00
46722;BME280;32455;43.430;23.136;2023-12-20T14:31:49;62537.69;;;-145.99;100.00
46722;BME280;32455;43.430;23.136;2023-12-20T14:34:35;62537.69;;;-145.99;100.00